Ungava - western half: Past 24 Hour Conditions

 

Kuujjuarapik Airport

05:00 PM EST 19 February 2019
Disclaimer

This table is a summary of hourly weather conditions for the past 24 hours.
Please note that these observations might not always be representative of weather conditions over their associated marine area.

Date / Time
(EST)
Wind(knots) Conditions Visibility(km) Pressure(kPa) Air tempC) Relative humidity(%) Dew pointC) Wind Chill
19 February 2019
17:00 WSW 14 gust 20 Mainly Sunny 16 102.4 -24 77 -27 -37
16:00 WSW 15 gust 22 Haze 3 102.4 -24 77 -27 -38
15:00 WSW 14 gust 22 Haze 3 102.4 -24 75 -28 -38
14:00 WSW 16 gust 25 Haze 2 102.4 -25 74 -28 -39
13:00 WSW 17 gust 23 Haze 2 102.3 -25 73 -29 -40
12:00 WSW 15 gust 20 Haze 5 102.3 -26 72 -29 -40
11:00 WSW 15 gust 21 Light Snow 3 102.3 -26 73 -30 -40
10:00 WSW 16 Haze 5 102.3 -27 74 -30 -41
9:00 WSW 13 Sunny 16 102.2 -27 73 -31 -41
8:00 WSW 12 Light Snow 16 102.2 -28 74 -31 -41
7:00 WSW 11 Light Snow 6 102.2 -28 75 -31 -41
6:00 WSW 8 Light Snow 10 102.2 -28 75 -31 -39
5:00 SW 5 Light Snow 6 102.2 -29 74 -32 -37
4:00 SSW 7 Light Snow 10 102.1 -29 73 -33 -40
3:00 SSW 6 Light Snow 11 102.1 -29 73 -33 -39
2:00 SW 5 Mainly Clear 16 102.1 -28 75 -31 -36
1:00 WSW 8 Light Snow 5 102.1 -28 74 -31 -39
0:00 WSW 10 gust 16 Light Snow 6 102.2 -27 74 -31 -39
18 February 2019
23:00 WSW 15 Light Snow 5 102.2 -27 74 -30 -41
22:00 WSW 13 gust 19 Light Snow 2 102.2 -27 75 -30 -40
21:00 WSW 13 gust 20 Light Snow 4 102.2 -26 74 -30 -40
20:00 WSW 14 gust 19 Light Snow 3 102.2 -26 76 -29 -40
19:00 WSW 12 gust 17 Light Snow 8 102.2 -26 76 -29 -39
18:00 WSW 13 Light Snow 5 102.2 -26 75 -29 -38
17:00 WSW 13 gust 18 Light Snow 2 102.1 -25 75 -28 -38

Zoom-in to make a selection

Map of Hudson - Hudson Bay marine weather areas Arviat Airport Baker Lake Airport Chesterfield Inlet Airport Coral Harbour Airport Rankin Inlet Airport Sanikiluaq Airport Whale Cove Airport Cape Dorset Airport Iqaluit Airport Resolution Island Wager Bay Kimmirut Airport Churchill Airport Fort Severn Airport Peawanuck Airport Moosonee Airport Eastmain Airport La Grande Rivière Airport Waskaganish Airport Wemindji Airport Akulivik Airport Inukjuak Airport Ivujivik Airport Kuujjuarapik Airport Puvirnituq Airport Umiujaq Airport Aupaluk Airport Kangiqsujuaq Airport Kangirsuk Airport Kangiqsualujjuaq Airport Kuujjuaq Airport Quaqtaq Airport Salluit Airport Tasiujaq Airport Cape Kakkiviak
Legend:
buoy Buoy
land station Land Station

Hudson - Hudson Bay Area

Another Region

What we are doing

Date modified: